SZT weather

CLOSED San Cristobal de las Casas Airport
San Cristobal de las Casas, Chiapas, Mexico

Public forecast

Using degrees Celsius for public forecast. Weather courtesy of forecast.io.

METAR (pilot weather report)

Closest report is Angel Albino Corzo International Airport, 29.3 nm (54.3 km) WSW. Retrieved 2019/06/16 23:55 UTC (52 minutes ago):

MMTG 162355Z 34003KT 12SM SCT020TCU BKN300 33/19 A2982 RMK SLP059 56008 971 8/203 ISOLD CB DSNT

TAF (pilot weather forecast)

Forecast is more than 6 hours old.

Closest forecast is Angel Albino Corzo International Airport, 29.3 nm (54.3 km) WSW. Retrieved 2019/06/16 18:03 UTC (7 hours ago):

TAF MMTG 161701Z 1618/1718 31010KT P6SM SCT018 BKN080 BKN220 BECMG 1620/1621 6SM -RA BKN015CB TEMPO 1622/1702 2SM TSRA BKN010 OVC015CB FM170400 00000KT 4SM HZ BKN010 BKN080 BKN220 FM171500 29006KT P6SM BKN018 BKN080 BKN220